sensor_id;sensor_type;location;lat;lon;timestamp;P1;durP1;ratioP1;P2;durP2;ratioP2
12288;SDS011;6207;49.308;7.336;2023-02-23T00:01:27;55.17;;;30.67;;
12288;SDS011;6207;49.308;7.336;2023-02-23T00:03:55;51.87;;;24.70;;
12288;SDS011;6207;49.308;7.336;2023-02-23T00:06:24;57.40;;;29.23;;
12288;SDS011;6207;49.308;7.336;2023-02-23T00:08:52;56.00;;;28.77;;
12288;SDS011;6207;49.308;7.336;2023-02-23T00:11:20;53.33;;;25.23;;
12288;SDS011;6207;49.308;7.336;2023-02-23T00:13:48;49.93;;;27.10;;
12288;SDS011;6207;49.308;7.336;2023-02-23T00:16:17;48.43;;;24.27;;
12288;SDS011;6207;49.308;7.336;2023-02-23T00:18:47;56.30;;;30.33;;
12288;SDS011;6207;49.308;7.336;2023-02-23T00:21:23;46.83;;;27.13;;
12288;SDS011;6207;49.308;7.336;2023-02-23T00:23:55;56.83;;;29.27;;
12288;SDS011;6207;49.308;7.336;2023-02-23T00:26:25;50.23;;;26.93;;
12288;SDS011;6207;49.308;7.336;2023-02-23T00:28:56;49.50;;;26.80;;
12288;SDS011;6207;49.308;7.336;2023-02-23T00:31:24;50.23;;;25.63;;
12288;SDS011;6207;49.308;7.336;2023-02-23T00:33:52;46.93;;;24.73;;
12288;SDS011;6207;49.308;7.336;2023-02-23T00:36:23;47.90;;;26.83;;
12288;SDS011;6207;49.308;7.336;2023-02-23T00:38:52;37.10;;;22.30;;
12288;SDS011;6207;49.308;7.336;2023-02-23T00:41:20;47.47;;;25.27;;
12288;SDS011;6207;49.308;7.336;2023-02-23T00:43:56;45.67;;;24.73;;
12288;SDS011;6207;49.308;7.336;2023-02-23T00:46:25;44.10;;;23.90;;
12288;SDS011;6207;49.308;7.336;2023-02-23T00:48:55;48.47;;;27.53;;
12288;SDS011;6207;49.308;7.336;2023-02-23T00:51:24;42.87;;;23.50;;
12288;SDS011;6207;49.308;7.336;2023-02-23T00:53:53;39.60;;;22.43;;
12288;SDS011;6207;49.308;7.336;2023-02-23T00:56:20;47.00;;;26.40;;
12288;SDS011;6207;49.308;7.336;2023-02-23T00:58:47;44.33;;;25.73;;
12288;SDS011;6207;49.308;7.336;2023-02-23T01:01:14;46.60;;;25.23;;
12288;SDS011;6207;49.308;7.336;2023-02-23T01:03:42;43.40;;;23.87;;
12288;SDS011;6207;49.308;7.336;2023-02-23T01:06:11;44.53;;;26.03;;
12288;SDS011;6207;49.308;7.336;2023-02-23T01:08:41;46.10;;;24.97;;
12288;SDS011;6207;49.308;7.336;2023-02-23T01:11:16;44.17;;;23.77;;
12288;SDS011;6207;49.308;7.336;2023-02-23T01:13:46;43.63;;;24.83;;
12288;SDS011;6207;49.308;7.336;2023-02-23T01:16:15;42.80;;;22.87;;
12288;SDS011;6207;49.308;7.336;2023-02-23T01:18:45;47.87;;;26.50;;
12288;SDS011;6207;49.308;7.336;2023-02-23T01:21:18;44.80;;;25.83;;
12288;SDS011;6207;49.308;7.336;2023-02-23T01:23:46;43.93;;;25.83;;
12288;SDS011;6207;49.308;7.336;2023-02-23T01:26:14;41.20;;;22.47;;
12288;SDS011;6207;49.308;7.336;2023-02-23T01:28:52;46.63;;;23.77;;
12288;SDS011;6207;49.308;7.336;2023-02-23T01:31:20;45.80;;;25.53;;
12288;SDS011;6207;49.308;7.336;2023-02-23T01:34:08;51.73;;;26.27;;
12288;SDS011;6207;49.308;7.336;2023-02-23T01:36:37;44.53;;;24.50;;
12288;SDS011;6207;49.308;7.336;2023-02-23T01:39:09;45.50;;;24.07;;
12288;SDS011;6207;49.308;7.336;2023-02-23T01:41:38;48.00;;;25.47;;
12288;SDS011;6207;49.308;7.336;2023-02-23T01:46:57;42.40;;;23.30;;
12288;SDS011;6207;49.308;7.336;2023-02-23T01:49:25;46.00;;;25.47;;
12288;SDS011;6207;49.308;7.336;2023-02-23T01:51:58;38.60;;;21.47;;
12288;SDS011;6207;49.308;7.336;2023-02-23T01:54:38;42.70;;;22.47;;
12288;SDS011;6207;49.308;7.336;2023-02-23T01:57:07;40.97;;;22.33;;
12288;SDS011;6207;49.308;7.336;2023-02-23T01:59:38;36.73;;;20.03;;
12288;SDS011;6207;49.308;7.336;2023-02-23T02:02:08;35.87;;;20.07;;
12288;SDS011;6207;49.308;7.336;2023-02-23T02:04:36;38.73;;;20.53;;
12288;SDS011;6207;49.308;7.336;2023-02-23T02:07:11;44.67;;;24.23;;
12288;SDS011;6207;49.308;7.336;2023-02-23T02:09:43;44.33;;;23.50;;
12288;SDS011;6207;49.308;7.336;2023-02-23T02:12:30;45.70;;;24.40;;
12288;SDS011;6207;49.308;7.336;2023-02-23T02:14:57;41.73;;;22.90;;
12288;SDS011;6207;49.308;7.336;2023-02-23T02:35:07;40.07;;;23.23;;
12288;SDS011;6207;49.308;7.336;2023-02-23T02:37:48;36.27;;;21.40;;
12288;SDS011;6207;49.308;7.336;2023-02-23T02:42:58;42.20;;;23.30;;
12288;SDS011;6207;49.308;7.336;2023-02-23T02:45:37;38.07;;;23.40;;
12288;SDS011;6207;49.308;7.336;2023-02-23T02:50:54;42.63;;;23.60;;
12288;SDS011;6207;49.308;7.336;2023-02-23T02:53:50;44.13;;;22.30;;
12288;SDS011;6207;49.308;7.336;2023-02-23T02:56:32;41.83;;;22.80;;
12288;SDS011;6207;49.308;7.336;2023-02-23T02:59:09;46.93;;;24.30;;
12288;SDS011;6207;49.308;7.336;2023-02-23T03:01:57;42.13;;;22.00;;
12288;SDS011;6207;49.308;7.336;2023-02-23T03:04:43;41.07;;;24.40;;
12288;SDS011;6207;49.308;7.336;2023-02-23T03:07:30;48.17;;;22.73;;
12288;SDS011;6207;49.308;7.336;2023-02-23T03:10:35;43.80;;;24.13;;
12288;SDS011;6207;49.308;7.336;2023-02-23T03:13:34;41.97;;;24.63;;
12288;SDS011;6207;49.308;7.336;2023-02-23T03:16:55;44.47;;;19.90;;
12288;SDS011;6207;49.308;7.336;2023-02-23T03:19:53;42.07;;;22.37;;
12288;SDS011;6207;49.308;7.336;2023-02-23T03:22:57;47.63;;;24.47;;
12288;SDS011;6207;49.308;7.336;2023-02-23T03:26:08;44.40;;;23.00;;
12288;SDS011;6207;49.308;7.336;2023-02-23T03:32:34;45.63;;;23.97;;
12288;SDS011;6207;49.308;7.336;2023-02-23T03:35:32;47.17;;;23.37;;
12288;SDS011;6207;49.308;7.336;2023-02-23T03:38:37;45.43;;;23.87;;
12288;SDS011;6207;49.308;7.336;2023-02-23T03:41:29;47.57;;;21.73;;
12288;SDS011;6207;49.308;7.336;2023-02-23T03:44:21;36.83;;;19.50;;
12288;SDS011;6207;49.308;7.336;2023-02-23T03:47:13;39.70;;;20.37;;
12288;SDS011;6207;49.308;7.336;2023-02-23T03:50:01;49.00;;;24.20;;
12288;SDS011;6207;49.308;7.336;2023-02-23T03:52:54;39.33;;;21.93;;
12288;SDS011;6207;49.308;7.336;2023-02-23T03:55:44;42.37;;;22.23;;
12288;SDS011;6207;49.308;7.336;2023-02-23T03:58:38;49.97;;;23.43;;
12288;SDS011;6207;49.308;7.336;2023-02-23T04:01:28;45.87;;;24.57;;
12288;SDS011;6207;49.308;7.336;2023-02-23T04:04:16;51.03;;;25.33;;
12288;SDS011;6207;49.308;7.336;2023-02-23T04:07:02;46.33;;;23.70;;
12288;SDS011;6207;49.308;7.336;2023-02-23T04:09:50;46.20;;;24.10;;
12288;SDS011;6207;49.308;7.336;2023-02-23T04:12:37;42.77;;;22.93;;
12288;SDS011;6207;49.308;7.336;2023-02-23T04:15:34;44.43;;;23.87;;
12288;SDS011;6207;49.308;7.336;2023-02-23T04:18:06;41.43;;;23.17;;
12288;SDS011;6207;49.308;7.336;2023-02-23T04:20:37;44.80;;;23.80;;
12288;SDS011;6207;49.308;7.336;2023-02-23T04:23:04;45.63;;;24.97;;
12288;SDS011;6207;49.308;7.336;2023-02-23T04:25:30;47.60;;;23.13;;
12288;SDS011;6207;49.308;7.336;2023-02-23T04:27:57;45.90;;;24.47;;
12288;SDS011;6207;49.308;7.336;2023-02-23T04:30:24;49.10;;;24.43;;
12288;SDS011;6207;49.308;7.336;2023-02-23T04:32:53;45.50;;;24.40;;
12288;SDS011;6207;49.308;7.336;2023-02-23T04:35:20;43.10;;;24.03;;
12288;SDS011;6207;49.308;7.336;2023-02-23T04:37:47;51.50;;;26.07;;
12288;SDS011;6207;49.308;7.336;2023-02-23T04:40:14;45.27;;;24.43;;
12288;SDS011;6207;49.308;7.336;2023-02-23T04:42:40;47.57;;;24.10;;
12288;SDS011;6207;49.308;7.336;2023-02-23T04:45:07;41.83;;;23.37;;
12288;SDS011;6207;49.308;7.336;2023-02-23T04:47:35;44.20;;;23.53;;
12288;SDS011;6207;49.308;7.336;2023-02-23T04:50:02;47.53;;;23.27;;
12288;SDS011;6207;49.308;7.336;2023-02-23T04:52:29;48.07;;;24.13;;
12288;SDS011;6207;49.308;7.336;2023-02-23T04:54:56;43.50;;;23.13;;
12288;SDS011;6207;49.308;7.336;2023-02-23T04:57:23;47.17;;;24.03;;
12288;SDS011;6207;49.308;7.336;2023-02-23T04:59:49;47.47;;;24.03;;
12288;SDS011;6207;49.308;7.336;2023-02-23T05:02:16;43.97;;;21.87;;
12288;SDS011;6207;49.308;7.336;2023-02-23T05:04:43;46.93;;;23.93;;
12288;SDS011;6207;49.308;7.336;2023-02-23T05:07:09;48.93;;;28.13;;
12288;SDS011;6207;49.308;7.336;2023-02-23T05:09:36;48.93;;;23.43;;
12288;SDS011;6207;49.308;7.336;2023-02-23T05:12:03;43.83;;;23.20;;
12288;SDS011;6207;49.308;7.336;2023-02-23T05:14:30;42.23;;;22.77;;
12288;SDS011;6207;49.308;7.336;2023-02-23T05:16:56;45.40;;;24.47;;
12288;SDS011;6207;49.308;7.336;2023-02-23T05:19:23;49.07;;;24.57;;
12288;SDS011;6207;49.308;7.336;2023-02-23T05:21:50;45.90;;;23.97;;
12288;SDS011;6207;49.308;7.336;2023-02-23T05:24:17;44.27;;;23.23;;
12288;SDS011;6207;49.308;7.336;2023-02-23T05:26:44;56.37;;;25.57;;
12288;SDS011;6207;49.308;7.336;2023-02-23T05:29:11;53.53;;;25.30;;
12288;SDS011;6207;49.308;7.336;2023-02-23T05:31:37;58.03;;;27.53;;
12288;SDS011;6207;49.308;7.336;2023-02-23T05:34:04;53.77;;;24.23;;
12288;SDS011;6207;49.308;7.336;2023-02-23T05:36:31;53.47;;;25.13;;
12288;SDS011;6207;49.308;7.336;2023-02-23T05:38:58;66.93;;;27.20;;
12288;SDS011;6207;49.308;7.336;2023-02-23T05:41:25;62.60;;;27.43;;
12288;SDS011;6207;49.308;7.336;2023-02-23T05:43:53;60.00;;;25.97;;
12288;SDS011;6207;49.308;7.336;2023-02-23T05:46:21;62.90;;;25.07;;
12288;SDS011;6207;49.308;7.336;2023-02-23T05:48:50;60.17;;;25.43;;
12288;SDS011;6207;49.308;7.336;2023-02-23T05:51:21;56.93;;;25.83;;
12288;SDS011;6207;49.308;7.336;2023-02-23T05:53:47;57.87;;;26.00;;
12288;SDS011;6207;49.308;7.336;2023-02-23T05:56:14;57.53;;;25.90;;
12288;SDS011;6207;49.308;7.336;2023-02-23T05:58:48;58.47;;;25.63;;
12288;SDS011;6207;49.308;7.336;2023-02-23T06:01:17;58.00;;;25.20;;
12288;SDS011;6207;49.308;7.336;2023-02-23T06:03:45;56.53;;;25.07;;
12288;SDS011;6207;49.308;7.336;2023-02-23T06:06:12;50.00;;;23.93;;
12288;SDS011;6207;49.308;7.336;2023-02-23T06:08:40;50.93;;;24.57;;
12288;SDS011;6207;49.308;7.336;2023-02-23T06:11:07;54.00;;;23.63;;
12288;SDS011;6207;49.308;7.336;2023-02-23T06:13:34;52.10;;;23.83;;
12288;SDS011;6207;49.308;7.336;2023-02-23T06:16:01;54.30;;;23.27;;
12288;SDS011;6207;49.308;7.336;2023-02-23T06:18:28;46.60;;;22.73;;
12288;SDS011;6207;49.308;7.336;2023-02-23T06:20:57;45.13;;;23.30;;
12288;SDS011;6207;49.308;7.336;2023-02-23T06:23:26;45.77;;;22.47;;
12288;SDS011;6207;49.308;7.336;2023-02-23T06:25:54;46.70;;;22.23;;
12288;SDS011;6207;49.308;7.336;2023-02-23T06:28:21;47.70;;;23.70;;
12288;SDS011;6207;49.308;7.336;2023-02-23T06:30:52;54.20;;;25.10;;
12288;SDS011;6207;49.308;7.336;2023-02-23T06:33:20;46.97;;;22.53;;
12288;SDS011;6207;49.308;7.336;2023-02-23T06:35:47;44.63;;;22.40;;
12288;SDS011;6207;49.308;7.336;2023-02-23T06:38:14;42.23;;;21.40;;
12288;SDS011;6207;49.308;7.336;2023-02-23T06:40:41;42.43;;;21.33;;
12288;SDS011;6207;49.308;7.336;2023-02-23T06:43:08;34.83;;;19.67;;
12288;SDS011;6207;49.308;7.336;2023-02-23T06:45:35;41.47;;;21.97;;
12288;SDS011;6207;49.308;7.336;2023-02-23T06:48:02;41.50;;;21.70;;
12288;SDS011;6207;49.308;7.336;2023-02-23T06:50:29;42.43;;;22.93;;
12288;SDS011;6207;49.308;7.336;2023-02-23T06:52:56;42.10;;;21.67;;
12288;SDS011;6207;49.308;7.336;2023-02-23T06:55:24;43.57;;;22.90;;
12288;SDS011;6207;49.308;7.336;2023-02-23T06:57:50;46.73;;;22.03;;
12288;SDS011;6207;49.308;7.336;2023-02-23T07:00:19;45.60;;;21.70;;
12288;SDS011;6207;49.308;7.336;2023-02-23T07:02:46;45.23;;;22.83;;
12288;SDS011;6207;49.308;7.336;2023-02-23T07:05:13;39.47;;;22.17;;
12288;SDS011;6207;49.308;7.336;2023-02-23T07:07:40;41.50;;;23.03;;
12288;SDS011;6207;49.308;7.336;2023-02-23T07:10:06;39.60;;;22.80;;
12288;SDS011;6207;49.308;7.336;2023-02-23T07:12:34;40.70;;;21.93;;
12288;SDS011;6207;49.308;7.336;2023-02-23T07:15:00;41.27;;;22.53;;
12288;SDS011;6207;49.308;7.336;2023-02-23T07:17:27;41.30;;;21.77;;
12288;SDS011;6207;49.308;7.336;2023-02-23T07:19:54;40.93;;;22.70;;
12288;SDS011;6207;49.308;7.336;2023-02-23T07:22:20;37.30;;;22.70;;
12288;SDS011;6207;49.308;7.336;2023-02-23T07:24:47;39.13;;;21.37;;
12288;SDS011;6207;49.308;7.336;2023-02-23T07:27:14;37.77;;;21.47;;
12288;SDS011;6207;49.308;7.336;2023-02-23T07:29:40;42.40;;;22.03;;
12288;SDS011;6207;49.308;7.336;2023-02-23T07:32:07;34.53;;;21.53;;
12288;SDS011;6207;49.308;7.336;2023-02-23T07:34:34;38.90;;;21.57;;
12288;SDS011;6207;49.308;7.336;2023-02-23T07:37:02;39.00;;;21.80;;
12288;SDS011;6207;49.308;7.336;2023-02-23T07:39:28;37.83;;;22.03;;
12288;SDS011;6207;49.308;7.336;2023-02-23T07:41:56;37.30;;;21.47;;
12288;SDS011;6207;49.308;7.336;2023-02-23T07:44:23;38.97;;;23.93;;
12288;SDS011;6207;49.308;7.336;2023-02-23T07:46:49;40.07;;;24.10;;
12288;SDS011;6207;49.308;7.336;2023-02-23T07:49:17;39.87;;;25.77;;
12288;SDS011;6207;49.308;7.336;2023-02-23T07:51:44;40.80;;;24.37;;
12288;SDS011;6207;49.308;7.336;2023-02-23T07:54:11;38.17;;;22.60;;
12288;SDS011;6207;49.308;7.336;2023-02-23T07:56:38;35.07;;;22.87;;
12288;SDS011;6207;49.308;7.336;2023-02-23T07:59:05;33.80;;;21.33;;
12288;SDS011;6207;49.308;7.336;2023-02-23T08:01:31;33.33;;;21.93;;
12288;SDS011;6207;49.308;7.336;2023-02-23T08:03:58;33.53;;;21.13;;
12288;SDS011;6207;49.308;7.336;2023-02-23T08:06:26;31.97;;;20.53;;
12288;SDS011;6207;49.308;7.336;2023-02-23T08:08:52;33.40;;;20.37;;
12288;SDS011;6207;49.308;7.336;2023-02-23T08:11:19;34.57;;;21.87;;
12288;SDS011;6207;49.308;7.336;2023-02-23T08:13:46;31.80;;;20.73;;
12288;SDS011;6207;49.308;7.336;2023-02-23T08:16:13;31.53;;;21.50;;
12288;SDS011;6207;49.308;7.336;2023-02-23T08:18:39;30.90;;;21.10;;
12288;SDS011;6207;49.308;7.336;2023-02-23T08:21:06;30.40;;;20.43;;
12288;SDS011;6207;49.308;7.336;2023-02-23T08:23:33;31.70;;;21.40;;
12288;SDS011;6207;49.308;7.336;2023-02-23T08:26:00;28.60;;;19.73;;
12288;SDS011;6207;49.308;7.336;2023-02-23T08:28:27;28.67;;;20.20;;
12288;SDS011;6207;49.308;7.336;2023-02-23T08:30:54;29.33;;;20.47;;
12288;SDS011;6207;49.308;7.336;2023-02-23T08:33:21;30.97;;;20.70;;
12288;SDS011;6207;49.308;7.336;2023-02-23T08:35:48;32.03;;;21.37;;
12288;SDS011;6207;49.308;7.336;2023-02-23T08:38:14;32.47;;;21.03;;
12288;SDS011;6207;49.308;7.336;2023-02-23T08:40:43;28.43;;;20.30;;
12288;SDS011;6207;49.308;7.336;2023-02-23T08:43:10;31.97;;;21.50;;
12288;SDS011;6207;49.308;7.336;2023-02-23T08:45:36;30.50;;;21.10;;
12288;SDS011;6207;49.308;7.336;2023-02-23T08:48:05;32.10;;;21.13;;
12288;SDS011;6207;49.308;7.336;2023-02-23T08:50:32;25.03;;;19.50;;
12288;SDS011;6207;49.308;7.336;2023-02-23T08:52:59;24.60;;;18.70;;
12288;SDS011;6207;49.308;7.336;2023-02-23T08:55:26;27.73;;;19.90;;
12288;SDS011;6207;49.308;7.336;2023-02-23T08:57:52;24.57;;;19.17;;
12288;SDS011;6207;49.308;7.336;2023-02-23T09:00:19;23.97;;;19.17;;
12288;SDS011;6207;49.308;7.336;2023-02-23T09:02:46;24.53;;;20.60;;
12288;SDS011;6207;49.308;7.336;2023-02-23T09:05:13;22.77;;;19.07;;
12288;SDS011;6207;49.308;7.336;2023-02-23T09:07:41;21.57;;;18.17;;
12288;SDS011;6207;49.308;7.336;2023-02-23T09:10:12;21.30;;;17.53;;
12288;SDS011;6207;49.308;7.336;2023-02-23T09:12:40;22.23;;;18.73;;
12288;SDS011;6207;49.308;7.336;2023-02-23T09:15:07;21.33;;;18.00;;
12288;SDS011;6207;49.308;7.336;2023-02-23T09:17:34;28.40;;;20.13;;
12288;SDS011;6207;49.308;7.336;2023-02-23T09:20:02;22.77;;;18.23;;
12288;SDS011;6207;49.308;7.336;2023-02-23T09:22:30;21.27;;;17.97;;
12288;SDS011;6207;49.308;7.336;2023-02-23T09:24:57;22.30;;;17.60;;
12288;SDS011;6207;49.308;7.336;2023-02-23T09:27:24;24.83;;;18.70;;
12288;SDS011;6207;49.308;7.336;2023-02-23T09:29:50;27.63;;;18.73;;
12288;SDS011;6207;49.308;7.336;2023-02-23T09:32:17;24.20;;;17.90;;
12288;SDS011;6207;49.308;7.336;2023-02-23T09:34:44;24.33;;;18.83;;
12288;SDS011;6207;49.308;7.336;2023-02-23T09:37:10;22.37;;;17.67;;
12288;SDS011;6207;49.308;7.336;2023-02-23T09:39:37;21.37;;;17.50;;
12288;SDS011;6207;49.308;7.336;2023-02-23T09:45:16;21.60;;;18.10;;
12288;SDS011;6207;49.308;7.336;2023-02-23T09:48:01;24.97;;;18.70;;
12288;SDS011;6207;49.308;7.336;2023-02-23T09:50:32;22.93;;;18.27;;
12288;SDS011;6207;49.308;7.336;2023-02-23T09:53:02;22.40;;;18.27;;
12288;SDS011;6207;49.308;7.336;2023-02-23T09:55:37;22.07;;;18.10;;
12288;SDS011;6207;49.308;7.336;2023-02-23T09:58:07;22.60;;;18.90;;
12288;SDS011;6207;49.308;7.336;2023-02-23T10:03:57;22.93;;;17.83;;
12288;SDS011;6207;49.308;7.336;2023-02-23T10:06:27;21.67;;;17.97;;
12288;SDS011;6207;49.308;7.336;2023-02-23T10:08:57;22.70;;;19.07;;
12288;SDS011;6207;49.308;7.336;2023-02-23T10:11:43;20.93;;;17.57;;
12288;SDS011;6207;49.308;7.336;2023-02-23T10:14:24;22.27;;;17.67;;
12288;SDS011;6207;49.308;7.336;2023-02-23T10:22:48;21.23;;;18.50;;
12288;SDS011;6207;49.308;7.336;2023-02-23T10:25:18;19.63;;;17.43;;
12288;SDS011;6207;49.308;7.336;2023-02-23T10:27:49;21.50;;;18.20;;
12288;SDS011;6207;49.308;7.336;2023-02-23T10:32:48;19.47;;;17.17;;
12288;SDS011;6207;49.308;7.336;2023-02-23T10:35:25;19.00;;;16.97;;
12288;SDS011;6207;49.308;7.336;2023-02-23T10:37:54;20.53;;;16.93;;
12288;SDS011;6207;49.308;7.336;2023-02-23T10:40:23;21.00;;;17.00;;
12288;SDS011;6207;49.308;7.336;2023-02-23T10:42:56;21.67;;;17.00;;
12288;SDS011;6207;49.308;7.336;2023-02-23T10:45:24;21.70;;;17.50;;
12288;SDS011;6207;49.308;7.336;2023-02-23T10:48:06;21.00;;;17.60;;
12288;SDS011;6207;49.308;7.336;2023-02-23T10:50:37;23.53;;;17.53;;
12288;SDS011;6207;49.308;7.336;2023-02-23T10:53:14;20.93;;;18.10;;
12288;SDS011;6207;49.308;7.336;2023-02-23T10:55:45;21.27;;;18.97;;
12288;SDS011;6207;49.308;7.336;2023-02-23T10:58:24;21.50;;;18.03;;
12288;SDS011;6207;49.308;7.336;2023-02-23T11:00:59;20.97;;;18.63;;
12288;SDS011;6207;49.308;7.336;2023-02-23T11:06:25;23.47;;;18.80;;
12288;SDS011;6207;49.308;7.336;2023-02-23T11:12:17;22.63;;;18.70;;
12288;SDS011;6207;49.308;7.336;2023-02-23T11:14:51;19.90;;;17.70;;
12288;SDS011;6207;49.308;7.336;2023-02-23T11:17:24;24.37;;;19.37;;
12288;SDS011;6207;49.308;7.336;2023-02-23T11:19:58;21.17;;;18.97;;
12288;SDS011;6207;49.308;7.336;2023-02-23T11:22:31;22.37;;;18.50;;
12288;SDS011;6207;49.308;7.336;2023-02-23T11:25:02;24.00;;;19.80;;
12288;SDS011;6207;49.308;7.336;2023-02-23T11:27:40;26.13;;;20.67;;
12288;SDS011;6207;49.308;7.336;2023-02-23T11:30:12;22.37;;;19.93;;
12288;SDS011;6207;49.308;7.336;2023-02-23T11:32:39;27.83;;;20.63;;
12288;SDS011;6207;49.308;7.336;2023-02-23T11:37:49;28.03;;;20.93;;
12288;SDS011;6207;49.308;7.336;2023-02-23T11:40:24;25.77;;;21.17;;
12288;SDS011;6207;49.308;7.336;2023-02-23T11:45:51;23.47;;;21.07;;
12288;SDS011;6207;49.308;7.336;2023-02-23T11:48:31;23.30;;;20.03;;
12288;SDS011;6207;49.308;7.336;2023-02-23T11:51:03;25.40;;;21.80;;
12288;SDS011;6207;49.308;7.336;2023-02-23T11:53:33;25.13;;;20.23;;
12288;SDS011;6207;49.308;7.336;2023-02-23T11:56:02;26.50;;;22.63;;
12288;SDS011;6207;49.308;7.336;2023-02-23T11:58:41;24.67;;;21.63;;
12288;SDS011;6207;49.308;7.336;2023-02-23T12:01:13;25.23;;;20.90;;
12288;SDS011;6207;49.308;7.336;2023-02-23T12:03:46;24.53;;;21.70;;
12288;SDS011;6207;49.308;7.336;2023-02-23T12:06:27;24.43;;;21.03;;
12288;SDS011;6207;49.308;7.336;2023-02-23T12:11:33;25.67;;;21.40;;
12288;SDS011;6207;49.308;7.336;2023-02-23T12:14:06;27.27;;;21.60;;
12288;SDS011;6207;49.308;7.336;2023-02-23T12:16:47;27.33;;;20.90;;
12288;SDS011;6207;49.308;7.336;2023-02-23T12:19:26;26.30;;;22.83;;
12288;SDS011;6207;49.308;7.336;2023-02-23T12:24:27;29.67;;;23.20;;
12288;SDS011;6207;49.308;7.336;2023-02-23T12:27:15;27.70;;;22.60;;
12288;SDS011;6207;49.308;7.336;2023-02-23T12:32:45;26.73;;;21.83;;
12288;SDS011;6207;49.308;7.336;2023-02-23T12:41:09;27.77;;;21.43;;
12288;SDS011;6207;49.308;7.336;2023-02-23T12:43:39;25.13;;;19.60;;
12288;SDS011;6207;49.308;7.336;2023-02-23T12:46:36;28.87;;;22.33;;
12288;SDS011;6207;49.308;7.336;2023-02-23T12:49:35;25.87;;;22.07;;
12288;SDS011;6207;49.308;7.336;2023-02-23T12:54:45;28.07;;;22.13;;
12288;SDS011;6207;49.308;7.336;2023-02-23T12:59:51;29.33;;;23.97;;
12288;SDS011;6207;49.308;7.336;2023-02-23T13:02:46;28.50;;;21.27;;
12288;SDS011;6207;49.308;7.336;2023-02-23T13:05:22;26.80;;;21.53;;
12288;SDS011;6207;49.308;7.336;2023-02-23T13:13:36;27.57;;;21.20;;
12288;SDS011;6207;49.308;7.336;2023-02-23T13:16:59;24.63;;;20.47;;
12288;SDS011;6207;49.308;7.336;2023-02-23T13:19:13;28.97;;;21.80;;
12288;SDS011;6207;49.308;7.336;2023-02-23T13:21:51;30.37;;;23.80;;
12288;SDS011;6207;49.308;7.336;2023-02-23T13:24:25;28.83;;;21.70;;
12288;SDS011;6207;49.308;7.336;2023-02-23T13:29:38;27.20;;;22.77;;
12288;SDS011;6207;49.308;7.336;2023-02-23T13:32:10;30.10;;;23.20;;
12288;SDS011;6207;49.308;7.336;2023-02-23T13:34:44;25.70;;;21.17;;
12288;SDS011;6207;49.308;7.336;2023-02-23T13:37:18;27.10;;;21.30;;
12288;SDS011;6207;49.308;7.336;2023-02-23T13:39:58;27.50;;;21.20;;
12288;SDS011;6207;49.308;7.336;2023-02-23T13:42:35;25.53;;;21.83;;
12288;SDS011;6207;49.308;7.336;2023-02-23T13:48:05;26.53;;;22.60;;
12288;SDS011;6207;49.308;7.336;2023-02-23T13:51:11;28.17;;;22.60;;
12288;SDS011;6207;49.308;7.336;2023-02-23T13:56:07;26.73;;;22.20;;
12288;SDS011;6207;49.308;7.336;2023-02-23T13:58:53;26.17;;;22.87;;
12288;SDS011;6207;49.308;7.336;2023-02-23T14:01:28;25.07;;;20.70;;
12288;SDS011;6207;49.308;7.336;2023-02-23T14:03:57;24.93;;;20.80;;
12288;SDS011;6207;49.308;7.336;2023-02-23T14:06:27;22.77;;;18.93;;
12288;SDS011;6207;49.308;7.336;2023-02-23T14:09:06;24.23;;;19.93;;
12288;SDS011;6207;49.308;7.336;2023-02-23T14:14:10;20.93;;;18.73;;
12288;SDS011;6207;49.308;7.336;2023-02-23T14:19:43;21.80;;;18.83;;
12288;SDS011;6207;49.308;7.336;2023-02-23T14:22:35;21.80;;;19.37;;
12288;SDS011;6207;49.308;7.336;2023-02-23T14:28:03;21.57;;;19.27;;
12288;SDS011;6207;49.308;7.336;2023-02-23T14:31:33;20.47;;;18.27;;
12288;SDS011;6207;49.308;7.336;2023-02-23T14:41:30;27.00;;;19.07;;
12288;SDS011;6207;49.308;7.336;2023-02-23T14:43:59;22.30;;;19.63;;
12288;SDS011;6207;49.308;7.336;2023-02-23T14:46:34;21.50;;;19.30;;
12288;SDS011;6207;49.308;7.336;2023-02-23T14:49:09;22.60;;;20.00;;
12288;SDS011;6207;49.308;7.336;2023-02-23T14:51:45;23.03;;;18.77;;
12288;SDS011;6207;49.308;7.336;2023-02-23T14:54:21;21.37;;;19.17;;
12288;SDS011;6207;49.308;7.336;2023-02-23T14:56:56;24.47;;;21.33;;
12288;SDS011;6207;49.308;7.336;2023-02-23T14:59:28;20.97;;;18.77;;
12288;SDS011;6207;49.308;7.336;2023-02-23T15:02:06;22.40;;;18.20;;
12288;SDS011;6207;49.308;7.336;2023-02-23T15:04:44;21.07;;;18.20;;
12288;SDS011;6207;49.308;7.336;2023-02-23T15:07:31;20.23;;;18.03;;
12288;SDS011;6207;49.308;7.336;2023-02-23T15:10:07;19.93;;;17.83;;
12288;SDS011;6207;49.308;7.336;2023-02-23T15:12:43;20.03;;;17.13;;
12288;SDS011;6207;49.308;7.336;2023-02-23T15:15:14;19.70;;;17.60;;
12288;SDS011;6207;49.308;7.336;2023-02-23T15:17:45;20.33;;;18.13;;
12288;SDS011;6207;49.308;7.336;2023-02-23T15:20:14;19.87;;;17.70;;
12288;SDS011;6207;49.308;7.336;2023-02-23T15:22:47;18.70;;;16.80;;
12288;SDS011;6207;49.308;7.336;2023-02-23T15:25:21;19.30;;;17.40;;
12288;SDS011;6207;49.308;7.336;2023-02-23T15:27:50;19.53;;;16.93;;
12288;SDS011;6207;49.308;7.336;2023-02-23T15:30:25;19.07;;;17.23;;
12288;SDS011;6207;49.308;7.336;2023-02-23T15:33:00;18.77;;;16.77;;
12288;SDS011;6207;49.308;7.336;2023-02-23T15:35:34;19.83;;;16.57;;
12288;SDS011;6207;49.308;7.336;2023-02-23T15:38:07;16.53;;;14.83;;
12288;SDS011;6207;49.308;7.336;2023-02-23T15:40:52;12.03;;;11.13;;
12288;SDS011;6207;49.308;7.336;2023-02-23T15:43:20;12.30;;;11.30;;
12288;SDS011;6207;49.308;7.336;2023-02-23T15:45:48;11.50;;;10.80;;
12288;SDS011;6207;49.308;7.336;2023-02-23T15:48:19;11.17;;;10.40;;
12288;SDS011;6207;49.308;7.336;2023-02-23T15:50:50;11.37;;;10.57;;
12288;SDS011;6207;49.308;7.336;2023-02-23T15:55:54;12.20;;;11.40;;
12288;SDS011;6207;49.308;7.336;2023-02-23T15:58:27;12.20;;;11.30;;
12288;SDS011;6207;49.308;7.336;2023-02-23T16:01:19;12.10;;;11.20;;
12288;SDS011;6207;49.308;7.336;2023-02-23T16:06:30;10.60;;;9.90;;
12288;SDS011;6207;49.308;7.336;2023-02-23T16:09:22;10.87;;;10.17;;
12288;SDS011;6207;49.308;7.336;2023-02-23T16:14:32;11.83;;;10.93;;
12288;SDS011;6207;49.308;7.336;2023-02-23T16:17:05;11.87;;;10.80;;
12288;SDS011;6207;49.308;7.336;2023-02-23T16:19:38;11.63;;;10.63;;
12288;SDS011;6207;49.308;7.336;2023-02-23T16:22:06;12.10;;;11.20;;
12288;SDS011;6207;49.308;7.336;2023-02-23T16:24:43;11.73;;;10.93;;
12288;SDS011;6207;49.308;7.336;2023-02-23T16:27:10;12.03;;;11.13;;
12288;SDS011;6207;49.308;7.336;2023-02-23T16:29:38;11.83;;;10.77;;
12288;SDS011;6207;49.308;7.336;2023-02-23T16:32:10;11.57;;;10.60;;
12288;SDS011;6207;49.308;7.336;2023-02-23T16:37:17;11.80;;;11.00;;
12288;SDS011;6207;49.308;7.336;2023-02-23T16:39:48;12.43;;;11.53;;
12288;SDS011;6207;49.308;7.336;2023-02-23T16:44:53;12.10;;;11.00;;
12288;SDS011;6207;49.308;7.336;2023-02-23T16:49:50;11.47;;;10.60;;
12288;SDS011;6207;49.308;7.336;2023-02-23T16:52:18;11.40;;;10.60;;
12288;SDS011;6207;49.308;7.336;2023-02-23T16:54:47;11.57;;;10.63;;
12288;SDS011;6207;49.308;7.336;2023-02-23T16:57:21;10.83;;;9.93;;
12288;SDS011;6207;49.308;7.336;2023-02-23T16:59:50;11.17;;;10.23;;
12288;SDS011;6207;49.308;7.336;2023-02-23T17:02:19;11.27;;;10.47;;
12288;SDS011;6207;49.308;7.336;2023-02-23T17:04:50;11.97;;;10.87;;
12288;SDS011;6207;49.308;7.336;2023-02-23T17:07:18;11.00;;;10.20;;
12288;SDS011;6207;49.308;7.336;2023-02-23T17:09:49;10.93;;;10.23;;